Авиационная погода в Закаталы

СКИДКИ НА СМАРТФОНЫ!

Регион: 
Погода METAR: 
UBBY 190100Z 09008KT 9999 FEW100 22/09 Q1012 NOSIG RMK MT OP
Время наблюдения
2022-08-19T01:00:00Z
Температура C
22.0
Точка росы
9.0
Направление ветра
90
Скорость ветра (узлы)
8
Метео видимость
6.21
Облачность
FEW
Нижняя граница облачности (футы)
10000
Явления погоды
Условия полета
VFR
FEW – незначительная облачность;

Скидки на навигаторы!